Time;durP1;ratioP1;P1;durP2;ratioP2;P2;SDS_P1;SDS_P2;PMS_P1;PMS_P2;Temp;Humidity;BMP_temperature;BMP_pressure;BME280_temperature;BME280_humidity;BME280_pressure;Samples;Min_cycle;Max_cycle;Signal;HPM_P1;HPM_P2
2024/01/18 00:01:31;;;;;;;0.60;0.60;;;;;;;-1.89;81.59;97463.72;5107382;28;20022;-69
2024/01/18 00:03:58;;;;;;;0.60;0.60;;;;;;;-1.95;80.96;97481.53;5108672;28;20057;-68
2024/01/18 00:06:23;;;;;;;0.60;0.60;;;;;;;-1.95;81.23;97491.72;5107307;28;20035;-68
2024/01/18 00:08:49;;;;;;;0.50;0.50;;;;;;;-2.02;81.29;97487.53;5108238;28;20080;-69
2024/01/18 00:11:15;;;;;;;11.18;2.95;;;;;;;-2.06;81.05;97496.84;5108388;28;20460;-69
2024/01/18 00:13:41;;;;;;;0.60;0.60;;;;;;;-2.22;81.23;97480.00;5108393;28;20027;-69
2024/01/18 00:16:07;;;;;;;0.50;0.50;;;;;;;-2.13;81.70;97497.75;5108382;28;20020;-69
2024/01/18 00:18:32;;;;;;;0.50;0.50;;;;;;;-2.19;81.59;97493.50;5107964;28;20028;-69
2024/01/18 00:20:58;;;;;;;0.50;0.50;;;;;;;-2.26;82.17;97494.41;5108286;28;20020;-69
2024/01/18 00:23:23;;;;;;;0.50;0.50;;;;;;;-2.27;82.33;97498.63;5108326;28;20073;-70
2024/01/18 00:25:48;;;;;;;0.60;0.60;;;;;;;-2.31;82.53;97503.72;5108312;28;20496;-70
2024/01/18 00:28:14;;;;;;;3.83;1.13;;;;;;;-2.30;82.66;97508.81;5107866;28;20028;-70
2024/01/18 00:30:39;;;;;;;0.60;0.60;;;;;;;-2.41;82.81;97510.56;5106654;28;20032;-70
2024/01/18 00:33:04;;;;;;;0.50;0.50;;;;;;;-2.44;82.70;97502.91;5107840;28;20352;-69
2024/01/18 00:35:30;;;;;;;0.50;0.50;;;;;;;-2.48;82.79;97512.28;5107983;28;20050;-70
2024/01/18 00:37:55;;;;;;;0.50;0.50;;;;;;;-2.54;82.97;97519.91;5107976;28;20038;-69
2024/01/18 00:40:21;;;;;;;0.98;0.93;;;;;;;-2.65;82.94;97508.06;5107855;28;20040;-68
2024/01/18 00:42:46;;;;;;;0.60;0.60;;;;;;;-2.70;82.66;97517.38;5106432;28;20480;-68
2024/01/18 00:45:11;;;;;;;0.60;0.60;;;;;;;-2.72;82.69;97518.22;5107784;28;20282;-68
2024/01/18 00:47:37;;;;;;;0.50;0.50;;;;;;;-2.79;83.08;97523.31;5107673;28;20028;-68
2024/01/18 00:50:02;;;;;;;0.60;0.60;;;;;;;-2.82;83.22;97522.47;5107581;28;20057;-69
2024/01/18 00:52:28;;;;;;;0.60;0.60;;;;;;;-2.86;83.38;97531.81;5107697;28;20016;-69
2024/01/18 00:54:53;;;;;;;0.70;0.70;;;;;;;-2.89;83.49;97531.81;5107601;28;20045;-70
2024/01/18 00:57:19;;;;;;;0.60;0.60;;;;;;;-2.91;83.71;97538.56;5106241;28;20051;-68
2024/01/18 00:59:44;;;;;;;0.60;0.60;;;;;;;-3.00;83.69;97535.19;5107344;28;20066;-69
2024/01/18 01:02:09;;;;;;;0.60;0.60;;;;;;;-2.95;83.67;97552.97;5107346;28;20028;-69
2024/01/18 01:04:35;;;;;;;0.60;0.60;;;;;;;-3.07;83.59;97542.81;5107366;28;20498;-69
2024/01/18 01:07:00;;;;;;;6.90;1.52;;;;;;;-3.06;83.74;97549.56;5105954;28;20023;-69
2024/01/18 01:09:25;;;;;;;0.52;0.52;;;;;;;-3.04;83.90;97563.97;5106597;28;20028;-69
2024/01/18 01:11:52;;;;;;;2.65;2.25;;;;;;;-3.12;83.76;97552.97;5107500;28;20028;-69
2024/01/18 01:14:17;;;;;;;0.60;0.60;;;;;;;-3.12;83.80;97558.03;5105795;28;20028;-68
2024/01/18 01:16:43;;;;;;;0.50;0.50;;;;;;;-3.12;83.97;97561.44;5105828;28;20114;-68
2024/01/18 01:19:08;;;;;;;0.60;0.60;;;;;;;-3.14;83.92;97563.13;5106853;28;20049;-69
2024/01/18 01:21:33;;;;;;;0.60;0.60;;;;;;;-3.19;84.02;97557.19;5107191;28;20044;-69
2024/01/18 01:23:59;;;;;;;1.75;0.95;;;;;;;-3.29;83.97;97546.16;5105721;28;20467;-69
2024/01/18 01:26:24;;;;;;;0.50;0.50;;;;;;;-3.17;84.08;97563.13;5106999;28;20023;-69
2024/01/18 01:28:49;;;;;;;0.60;0.60;;;;;;;-3.17;84.24;97568.19;5106967;28;20020;-69
2024/01/18 01:31:15;;;;;;;0.60;0.60;;;;;;;-3.21;84.24;97568.19;5106808;28;20020;-69
2024/01/18 01:33:42;;;;;;;0.52;0.52;;;;;;;-3.27;84.29;97572.41;5106640;28;20045;-69
2024/01/18 01:36:07;;;;;;;0.57;0.57;;;;;;;-3.27;84.21;97576.63;5105339;28;20020;-69
2024/01/18 01:38:33;;;;;;;0.50;0.50;;;;;;;-3.31;84.20;97583.41;5105273;28;20132;-69
2024/01/18 01:40:59;;;;;;;0.60;0.60;;;;;;;-3.34;84.15;97578.31;5105437;28;20020;-68
2024/01/18 01:43:24;;;;;;;0.60;0.60;;;;;;;-3.40;84.15;97580.81;5106628;28;20020;-68
2024/01/18 01:45:49;;;;;;;0.60;0.60;;;;;;;-3.44;84.23;97585.06;5106714;28;20051;-68
2024/01/18 01:48:15;;;;;;;0.60;0.60;;;;;;;-3.42;84.24;97590.97;5106354;28;20027;-69
2024/01/18 01:50:41;;;;;;;0.60;0.60;;;;;;;-3.47;84.14;97591.81;5106540;28;20461;-70
2024/01/18 01:53:10;;;;;;;0.60;0.60;;;;;;;-3.47;84.19;97601.94;5106385;28;20032;-69
2024/01/18 01:55:39;;;;;;;0.60;0.60;;;;;;;-3.45;84.33;97608.72;5106161;28;20027;-69
2024/01/18 01:58:05;;;;;;;0.70;0.70;;;;;;;-3.54;84.24;97601.94;5104945;28;20096;-69
2024/01/18 02:00:32;;;;;;;0.60;0.60;;;;;;;-3.53;84.07;97621.38;5104762;28;20047;-69
2024/01/18 02:02:58;;;;;;;0.50;0.50;;;;;;;-3.57;84.07;97618.81;5104824;28;20031;-69
2024/01/18 02:05:23;;;;;;;0.60;0.60;;;;;;;-3.67;84.14;97613.72;5106287;28;20024;-69
2024/01/18 02:07:49;;;;;;;0.60;0.60;;;;;;;-3.66;84.23;97627.25;5104717;28;20172;-69
2024/01/18 02:10:14;;;;;;;0.70;0.70;;;;;;;-3.62;84.26;97634.03;5105961;28;20482;-69
2024/01/18 02:12:42;;;;;;;0.60;0.60;;;;;;;-3.62;84.30;97646.72;5104908;28;20115;-70
2024/01/18 02:15:08;;;;;;;0.73;0.70;;;;;;;-3.65;84.33;97647.56;5104797;28;20044;-69
2024/01/18 02:17:34;;;;;;;0.70;0.70;;;;;;;-3.72;84.34;97647.53;5105915;28;20392;-69
2024/01/18 02:19:59;;;;;;;0.70;0.70;;;;;;;-3.74;84.34;97648.34;5105852;28;20024;-70
2024/01/18 02:22:27;;;;;;;0.70;0.70;;;;;;;-3.75;84.43;97656.81;5105873;28;20024;-69
2024/01/18 02:25:24;;;;;;;0.60;0.60;;;;;;;-3.80;84.35;97658.47;5106070;28;20024;-69
2024/01/18 02:27:54;;;;;;;0.70;0.70;;;;;;;-4.03;84.33;97631.31;5104227;28;20040;-70
2024/01/18 02:30:19;;;;;;;0.60;0.60;;;;;;;-3.91;84.21;97658.41;5104389;28;20020;-69
2024/01/18 02:32:44;;;;;;;0.60;0.60;;;;;;;-3.93;84.31;97666.84;5105798;28;20031;-69
2024/01/18 02:35:10;;;;;;;0.60;0.60;;;;;;;-4.01;84.37;97667.66;5104402;28;20165;-69
2024/01/18 02:37:35;;;;;;;0.75;0.75;;;;;;;-4.04;84.46;97671.88;5105679;28;20024;-69
2024/01/18 02:40:01;;;;;;;0.60;0.60;;;;;;;-4.14;84.35;97668.41;5105660;28;20020;-68
2024/01/18 02:42:27;;;;;;;0.60;0.60;;;;;;;-4.13;84.47;97670.09;5104323;28;20031;-68
2024/01/18 02:44:54;;;;;;;0.60;0.60;;;;;;;-4.14;84.43;97668.41;5105668;28;20028;-69
2024/01/18 02:47:19;;;;;;;0.50;0.50;;;;;;;-4.15;84.52;97669.25;5105387;28;20051;-69
2024/01/18 02:49:45;;;;;;;0.70;0.70;;;;;;;-4.11;84.46;97676.03;5104596;28;20020;-69
2024/01/18 02:52:10;;;;;;;0.60;0.60;;;;;;;-4.15;84.45;97675.16;5104097;28;20019;-68
2024/01/18 02:54:36;;;;;;;0.60;0.60;;;;;;;-4.16;84.54;97677.69;5104044;28;20073;-69
2024/01/18 02:57:01;;;;;;;0.60;0.60;;;;;;;-4.20;84.45;97678.53;5104023;28;20040;-69
2024/01/18 02:59:26;;;;;;;0.50;0.50;;;;;;;-4.19;84.35;97682.75;5105262;28;20089;-69
2024/01/18 03:01:52;;;;;;;0.60;0.60;;;;;;;-4.23;83.88;97677.66;5105396;28;20335;-69
2024/01/18 03:04:17;;;;;;;0.60;0.60;;;;;;;-4.31;84.05;97668.31;5105385;28;20028;-69
2024/01/18 03:06:43;;;;;;;0.60;0.60;;;;;;;-4.27;83.97;97677.63;5105488;28;20024;-70
2024/01/18 03:09:09;;;;;;;0.57;0.57;;;;;;;-4.24;84.19;97691.16;5105398;28;20023;-70
2024/01/18 03:11:34;;;;;;;0.50;0.50;;;;;;;-4.31;84.32;97689.41;5105363;28;20024;-69
2024/01/18 03:14:00;;;;;;;0.60;0.60;;;;;;;-4.33;84.37;97696.16;5105183;28;20016;-70
2024/01/18 03:16:26;;;;;;;0.50;0.50;;;;;;;-4.39;83.87;97694.41;5103816;28;20424;-69
2024/01/18 03:18:51;;;;;;;4.28;1.40;;;;;;;-4.41;83.96;97690.19;5105045;28;20490;-69
2024/01/18 03:21:16;;;;;;;2.95;1.35;;;;;;;-4.46;84.34;97701.97;5105224;28;20072;-69
2024/01/18 03:23:42;;;;;;;0.70;0.70;;;;;;;-4.50;84.20;97690.94;5105073;28;20020;-69
2024/01/18 03:26:08;;;;;;;0.60;0.60;;;;;;;-4.55;84.11;97698.50;5105255;28;20024;-69
2024/01/18 03:28:33;;;;;;;0.60;0.60;;;;;;;-4.58;83.62;97690.88;5104750;28;20024;-69
2024/01/18 03:30:58;;;;;;;1.17;1.08;;;;;;;-4.62;83.28;97691.72;5104806;28;20047;-70
2024/01/18 03:33:24;;;;;;;0.65;0.65;;;;;;;-4.56;83.17;97711.16;5108467;28;20028;-69
2024/01/18 03:35:49;;;;;;;0.90;0.82;;;;;;;-4.62;82.96;97702.66;5109056;28;20031;-69
2024/01/18 03:38:14;;;;;;;0.55;0.55;;;;;;;-4.64;83.26;97703.50;5109052;28;20020;-70
2024/01/18 03:40:40;;;;;;;0.60;0.60;;;;;;;-4.71;83.21;97707.66;5109037;28;20016;-70
2024/01/18 03:43:05;;;;;;;0.60;0.60;;;;;;;-4.69;83.17;97712.72;5107853;28;20027;-69
2024/01/18 03:45:31;;;;;;;0.60;0.60;;;;;;;-4.70;83.23;97714.44;5108965;28;20480;-70
2024/01/18 03:47:56;;;;;;;0.60;0.60;;;;;;;-4.62;83.36;97722.91;5108841;28;19996;-69
2024/01/18 03:50:22;;;;;;;0.60;0.60;;;;;;;-4.60;83.55;97728.84;5107720;28;20114;-69
2024/01/18 03:52:47;;;;;;;0.60;0.60;;;;;;;-4.59;83.91;97729.72;5108732;28;20475;-69
2024/01/18 03:55:12;;;;;;;0.60;0.60;;;;;;;-4.62;83.52;97734.75;5107527;28;20019;-69
2024/01/18 03:57:39;;;;;;;0.55;0.55;;;;;;;-4.58;83.67;97728.88;5108747;28;20033;-69
2024/01/18 04:00:05;;;;;;;0.82;0.70;;;;;;;-4.57;83.41;97739.84;5108693;28;20044;-70
2024/01/18 04:02:30;;;;;;;0.63;0.63;;;;;;;-4.58;83.32;97741.53;5108382;28;20045;-69
2024/01/18 04:04:55;;;;;;;0.60;0.60;;;;;;;-4.61;83.43;97738.97;5108589;28;20016;-69
2024/01/18 04:07:22;;;;;;;0.85;0.85;;;;;;;-4.62;83.21;97737.28;5107325;28;20468;-69
2024/01/18 04:09:47;;;;;;;0.65;0.65;;;;;;;-4.57;83.56;97748.31;5108373;28;20047;-69
2024/01/18 04:12:13;;;;;;;0.60;0.60;;;;;;;-4.54;83.53;97753.41;5108539;28;20031;-69
2024/01/18 04:14:43;;;;;;;0.77;0.77;;;;;;;-4.56;83.70;97752.53;5108484;28;20024;-69
2024/01/18 04:17:09;;;;;;;0.70;0.70;;;;;;;-4.61;83.60;97751.63;5108471;28;20079;-69
2024/01/18 04:19:34;;;;;;;0.50;0.50;;;;;;;-4.56;83.64;97762.66;5106847;28;20024;-69
2024/01/18 04:22:00;;;;;;;0.50;0.50;;;;;;;-4.58;83.67;97766.84;5108266;28;20115;-69
2024/01/18 04:24:25;;;;;;;0.60;0.60;;;;;;;-4.59;83.82;97777.81;5108196;28;20044;-69
2024/01/18 04:26:50;;;;;;;0.60;0.60;;;;;;;-4.74;83.77;97758.25;5108115;28;20046;-69
2024/01/18 04:29:16;;;;;;;0.63;0.63;;;;;;;-4.62;83.20;97773.56;5108049;28;20023;-68
2024/01/18 04:31:41;;;;;;;0.52;0.52;;;;;;;-4.55;83.31;97783.78;5106856;28;20509;-69
2024/01/18 04:34:06;;;;;;;0.50;0.50;;;;;;;-4.61;83.36;97785.41;5107878;28;20020;-69
2024/01/18 04:36:32;;;;;;;0.60;0.60;;;;;;;-4.59;83.57;97795.56;5106734;28;20066;-70
2024/01/18 04:38:57;;;;;;;0.60;0.60;;;;;;;-4.58;83.58;97794.72;5108009;28;20027;-69
2024/01/18 04:41:22;;;;;;;0.60;0.60;;;;;;;-4.56;83.54;97784.59;5107837;28;20072;-69
2024/01/18 04:43:48;;;;;;;0.60;0.60;;;;;;;-4.56;83.83;97780.38;5106741;28;20048;-69
2024/01/18 04:46:13;;;;;;;0.60;0.60;;;;;;;-4.57;83.90;97790.50;5107872;28;20024;-69
2024/01/18 04:48:39;;;;;;;0.65;0.65;;;;;;;-4.61;83.54;97797.22;5106103;28;20024;-69
2024/01/18 04:51:05;;;;;;;0.60;0.60;;;;;;;-4.62;83.92;97791.28;5106292;28;20092;-68
2024/01/18 04:53:30;;;;;;;0.60;0.60;;;;;;;-4.65;84.11;97790.44;5107586;28;20353;-69
2024/01/18 04:55:56;;;;;;;0.60;0.60;;;;;;;-4.65;83.97;97808.16;5107542;28;20028;-68
2024/01/18 04:58:21;;;;;;;0.60;0.60;;;;;;;-4.67;83.87;97819.94;5107616;28;20016;-69
2024/01/18 05:00:47;;;;;;;0.50;0.50;;;;;;;-4.82;84.04;97800.38;5107290;28;20047;-69
2024/01/18 05:03:12;;;;;;;0.60;0.60;;;;;;;-4.73;84.02;97813.97;5106958;28;20028;-69
2024/01/18 05:05:37;;;;;;;0.60;0.60;;;;;;;-4.77;83.93;97803.78;5106018;28;20032;-69
2024/01/18 05:08:03;;;;;;;0.52;0.52;;;;;;;-4.79;84.09;97806.31;5107580;28;20055;-69
2024/01/18 05:10:28;;;;;;;0.60;0.60;;;;;;;-4.74;83.83;97816.47;5107092;28;20054;-69
2024/01/18 05:12:54;;;;;;;0.60;0.60;;;;;;;-4.76;83.87;97820.69;5105871;28;20065;-69
2024/01/18 05:15:19;;;;;;;0.60;0.60;;;;;;;-4.79;83.94;97813.91;5107260;28;20026;-69
2024/01/18 05:17:47;;;;;;;0.60;0.60;;;;;;;-4.85;83.85;97809.63;5107243;28;20027;-68
2024/01/18 05:20:12;;;;;;;0.60;0.60;;;;;;;-4.82;83.75;97818.09;5106174;28;20016;-68
2024/01/18 05:22:38;;;;;;;0.57;0.57;;;;;;;-4.79;83.61;97825.72;5106946;28;20039;-68
2024/01/18 05:25:05;;;;;;;0.60;0.60;;;;;;;-4.75;83.60;97822.38;5107114;28;20029;-69
2024/01/18 05:27:30;;;;;;;0.60;0.60;;;;;;;-4.78;83.81;97823.22;5107073;28;20031;-70
2024/01/18 05:29:56;;;;;;;0.68;0.68;;;;;;;-4.81;83.20;97828.25;5106739;28;20027;-70
2024/01/18 05:32:22;;;;;;;0.60;0.60;;;;;;;-4.82;82.60;97823.16;5105435;28;20027;-70
2024/01/18 05:34:48;;;;;;;0.50;0.50;;;;;;;-4.81;82.36;97820.66;5106879;28;20024;-70
2024/01/18 05:37:14;;;;;;;0.60;0.60;;;;;;;-4.97;81.67;97807.78;5106629;28;20035;-69
2024/01/18 05:39:40;;;;;;;0.60;0.60;;;;;;;-4.89;78.99;97833.19;5106764;28;20024;-70
2024/01/18 05:42:05;;;;;;;0.70;0.70;;;;;;;-4.99;78.19;97839.84;5106183;28;20471;-69
2024/01/18 05:44:30;;;;;;;0.60;0.60;;;;;;;-5.14;77.38;97853.13;5106474;28;20035;-69
2024/01/18 05:46:56;;;;;;;0.57;0.57;;;;;;;-5.16;78.45;97857.31;5106731;28;20019;-70
2024/01/18 05:49:21;;;;;;;0.70;0.70;;;;;;;-5.29;78.76;97857.97;5106474;28;20024;-70
2024/01/18 05:51:47;;;;;;;0.68;0.68;;;;;;;-5.38;79.93;97857.00;5106265;28;20020;-69
2024/01/18 05:54:12;;;;;;;0.60;0.60;;;;;;;-5.42;79.22;97872.97;5106407;28;20028;-71
2024/01/18 05:56:38;;;;;;;0.60;0.60;;;;;;;-5.42;80.17;97867.06;5106202;28;20044;-70
2024/01/18 05:59:03;;;;;;;0.60;0.60;;;;;;;-5.43;80.96;97873.78;5106296;28;20055;-69
2024/01/18 06:01:28;;;;;;;0.55;0.55;;;;;;;-5.55;81.28;97864.34;5106328;28;20027;-70
2024/01/18 06:03:54;;;;;;;0.60;0.60;;;;;;;-5.52;81.77;97861.88;5106092;28;20089;-70
2024/01/18 06:06:19;;;;;;;1.17;1.08;;;;;;;-5.48;81.70;97876.25;5106505;28;20088;-71
2024/01/18 06:08:44;;;;;;;0.60;0.60;;;;;;;-5.47;81.18;97879.66;5106267;28;20027;-69
2024/01/18 06:11:10;;;;;;;0.95;0.95;;;;;;;-5.43;80.93;97878.84;5105954;28;20028;-70
2024/01/18 06:13:39;;;;;;;0.93;0.93;;;;;;;-5.32;81.21;97891.69;5106235;28;20020;-70
2024/01/18 06:16:06;;;;;;;0.60;0.60;;;;;;;-5.37;81.04;97885.69;5106134;28;20399;-70
2024/01/18 06:18:32;;;;;;;0.60;0.60;;;;;;;-5.30;80.89;97899.28;5104619;28;20031;-71
2024/01/18 06:20:58;;;;;;;8.65;2.05;;;;;;;-5.30;81.67;97897.59;5104698;28;20073;-71
2024/01/18 06:23:23;;;;;;;0.60;0.60;;;;;;;-5.31;82.10;97900.09;5106013;28;20020;-70
2024/01/18 06:25:48;;;;;;;0.60;0.60;;;;;;;-5.34;82.13;97908.50;5104704;28;20031;-70
2024/01/18 06:28:14;;;;;;;0.60;0.60;;;;;;;-5.29;82.30;97914.50;5106058;28;20417;-70
2024/01/18 06:30:43;;;;;;;0.55;0.55;;;;;;;-5.31;82.42;97913.59;5105625;28;20024;-70
2024/01/18 06:33:09;;;;;;;0.60;0.60;;;;;;;-5.36;82.67;97911.00;5104134;28;20028;-71
2024/01/18 06:35:34;;;;;;;0.60;0.60;;;;;;;-5.35;82.93;97905.09;5105844;28;20083;-70
2024/01/18 06:37:59;;;;;;;0.70;0.70;;;;;;;-5.43;82.77;97903.31;5105671;28;20053;-71
2024/01/18 06:40:25;;;;;;;0.70;0.70;;;;;;;-5.39;82.90;97907.56;5105760;28;20046;-70
2024/01/18 06:42:50;;;;;;;0.50;0.50;;;;;;;-5.32;82.96;97927.09;5104512;28;20027;-70
2024/01/18 06:45:15;;;;;;;0.60;0.60;;;;;;;-5.31;83.00;97938.91;5105901;28;20024;-70
2024/01/18 06:47:41;;;;;;;0.60;0.60;;;;;;;-5.45;83.10;97917.59;5104209;28;20024;-70
2024/01/18 06:50:06;;;;;;;0.60;0.60;;;;;;;-5.40;83.06;97933.69;5104141;28;20448;-70
2024/01/18 06:52:32;;;;;;;4.82;2.35;;;;;;;-5.44;82.90;97937.00;5105639;28;20024;-72
2024/01/18 06:54:57;;;;;;;0.70;0.70;;;;;;;-5.40;82.84;97941.28;5105612;28;20031;-71
2024/01/18 06:57:22;;;;;;;0.80;0.80;;;;;;;-5.44;82.86;97937.84;5105442;28;20468;-70
2024/01/18 06:59:48;;;;;;;0.60;0.60;;;;;;;-5.46;82.79;97942.03;5105052;28;20052;-70
2024/01/18 07:02:14;;;;;;;0.60;0.60;;;;;;;-5.42;82.98;97943.78;5105304;28;20108;-70
2024/01/18 07:04:39;;;;;;;0.60;0.60;;;;;;;-5.45;83.13;97937.81;5105194;28;20028;-70
2024/01/18 07:07:04;;;;;;;0.88;0.80;;;;;;;-5.45;83.16;97935.31;5104834;28;20031;-70
2024/01/18 07:09:32;;;;;;;0.70;0.70;;;;;;;-5.45;83.21;97941.22;5105261;28;20031;-70
2024/01/18 07:11:57;;;;;;;0.60;0.60;;;;;;;-5.44;82.91;97949.63;5103996;28;20016;-70
2024/01/18 07:14:23;;;;;;;0.60;0.60;;;;;;;-5.47;82.93;97951.31;5105246;28;20020;-70
2024/01/18 07:16:48;;;;;;;0.63;0.63;;;;;;;-5.52;83.04;97947.84;5105316;28;20067;-70
2024/01/18 07:19:13;;;;;;;1.02;1.02;;;;;;;-5.51;82.84;97951.22;5103488;28;20024;-70
2024/01/18 07:21:40;;;;;;;0.70;0.70;;;;;;;-5.53;82.92;97951.22;5104034;28;20452;-70
2024/01/18 07:24:06;;;;;;;0.70;0.70;;;;;;;-5.53;82.86;97958.78;5105081;28;20376;-70
2024/01/18 07:26:32;;;;;;;1.17;1.08;;;;;;;-5.50;82.76;97953.78;5105217;28;20036;-70
2024/01/18 07:28:57;;;;;;;0.70;0.70;;;;;;;-5.55;82.68;97952.00;5105308;28;20038;-71
2024/01/18 07:31:22;;;;;;;0.60;0.60;;;;;;;-5.54;82.78;97964.66;5104993;28;20027;-70
2024/01/18 07:33:50;;;;;;;0.60;0.60;;;;;;;-5.56;83.12;97956.22;5103621;28;20031;-70
2024/01/18 07:36:15;;;;;;;0.50;0.50;;;;;;;-5.48;83.01;97966.47;5105130;28;20107;-70
2024/01/18 07:38:41;;;;;;;0.68;0.68;;;;;;;-5.51;82.98;97971.47;5105106;28;20031;-69
2024/01/18 07:41:06;;;;;;;0.60;0.60;;;;;;;-5.58;82.94;97962.91;5104931;28;20292;-70
2024/01/18 07:43:32;;;;;;;0.60;0.60;;;;;;;-5.52;82.86;97964.69;5105147;28;20035;-70
2024/01/18 07:45:57;;;;;;;0.50;0.50;;;;;;;-5.53;82.45;97963.84;5105187;28;20486;-70
2024/01/18 07:48:22;;;;;;;0.70;0.70;;;;;;;-5.46;82.68;97964.78;5104998;28;20028;-69
2024/01/18 07:50:48;;;;;;;0.60;0.60;;;;;;;-5.54;81.60;97966.34;5104941;28;20024;-70
2024/01/18 07:53:13;;;;;;;0.60;0.60;;;;;;;-5.51;81.46;97967.25;5103704;28;20070;-71
2024/01/18 07:55:39;;;;;;;0.60;0.60;;;;;;;-5.51;80.98;97967.25;5105126;28;20031;-70
2024/01/18 07:58:04;;;;;;;0.63;0.63;;;;;;;-5.51;79.21;97979.88;5104898;28;20058;-70
2024/01/18 08:00:30;;;;;;;0.70;0.70;;;;;;;-5.54;78.33;97963.81;5104716;28;20036;-70
2024/01/18 08:02:55;;;;;;;0.70;0.70;;;;;;;-5.48;78.25;97979.94;5103605;28;20020;-69
2024/01/18 08:05:21;;;;;;;0.70;0.70;;;;;;;-5.35;78.95;97982.66;5104948;28;20024;-70
2024/01/18 08:07:46;;;;;;;1.08;0.98;;;;;;;-5.29;80.06;97981.94;5103558;28;20024;-71
2024/01/18 08:10:12;;;;;;;0.60;0.60;;;;;;;-5.22;80.65;97988.78;5104707;28;20031;-71
2024/01/18 08:12:37;;;;;;;0.70;0.70;;;;;;;-5.02;81.40;97980.66;5104642;28;20412;-70
2024/01/18 08:15:04;;;;;;;0.80;0.80;;;;;;;-4.51;82.07;97945.91;5104901;28;20020;-70
2024/01/18 08:17:29;;;;;;;0.80;0.80;;;;;;;-3.68;80.23;97973.81;5104850;28;20020;-70
2024/01/18 08:19:55;;;;;;;0.70;0.70;;;;;;;-3.15;78.81;97974.28;5106859;28;20020;-70
2024/01/18 08:22:21;;;;;;;1.08;0.98;;;;;;;-2.56;77.93;97987.34;5107308;28;20024;-70
2024/01/18 08:24:47;;;;;;;0.60;0.60;;;;;;;-2.26;74.58;97985.81;5107307;28;20036;-70
2024/01/18 08:27:13;;;;;;;0.60;0.60;;;;;;;-1.99;74.21;97985.88;5108365;28;20476;-71
2024/01/18 08:29:39;;;;;;;0.60;0.60;;;;;;;-1.85;70.71;97980.00;5108188;28;20039;-70
2024/01/18 08:32:05;;;;;;;0.50;0.50;;;;;;;-1.50;71.77;97987.69;5108419;28;20024;-70
2024/01/18 08:34:30;;;;;;;0.60;0.60;;;;;;;-1.35;70.81;97986.00;5106833;28;20040;-69
2024/01/18 08:36:55;;;;;;;0.50;0.50;;;;;;;-1.38;72.72;97996.19;5108007;28;20024;-70
2024/01/18 08:39:20;;;;;;;1.25;1.15;;;;;;;-1.55;73.17;97986.84;5108006;28;20039;-71
2024/01/18 08:41:46;;;;;;;0.50;0.50;;;;;;;-1.51;73.86;97997.88;5107945;28;20019;-70
2024/01/18 08:44:11;;;;;;;1.10;0.90;;;;;;;-1.67;74.06;97974.94;5107902;28;20107;-69
2024/01/18 08:46:39;;;;;;;0.70;0.70;;;;;;;-1.59;73.78;97994.47;5107844;28;20045;-69
2024/01/18 08:49:04;;;;;;;3.63;1.05;;;;;;;-1.57;74.64;97998.72;5106506;28;20027;-71
2024/01/18 08:51:29;;;;;;;2.25;1.98;;;;;;;-1.31;74.95;97982.59;5107559;28;20020;-70
2024/01/18 08:53:55;;;;;;;1.50;1.40;;;;;;;-1.05;73.53;97991.97;5107806;28;20016;-70
2024/01/18 08:56:20;;;;;;;0.50;0.50;;;;;;;-0.86;72.13;97993.66;5107964;28;20172;-70
2024/01/18 08:58:45;;;;;;;0.50;0.50;;;;;;;-0.86;68.50;97991.94;5107495;28;20069;-70
2024/01/18 09:01:11;;;;;;;1.35;1.33;;;;;;;-0.81;69.40;98002.97;5107613;28;20055;-71
2024/01/18 09:03:37;;;;;;;0.70;0.70;;;;;;;-0.77;66.25;97999.56;5107520;28;20036;-69
2024/01/18 09:06:02;;;;;;;0.60;0.60;;;;;;;-0.55;67.08;98017.38;5106175;28;20024;-70
2024/01/18 09:08:28;;;;;;;0.80;0.80;;;;;;;-0.19;66.96;98016.44;5107487;28;20103;-70
2024/01/18 09:10:53;;;;;;;0.50;0.50;;;;;;;0.08;66.25;98035.03;5107403;28;20016;-70
2024/01/18 09:13:19;;;;;;;0.50;0.50;;;;;;;0.24;64.81;98030.69;5107337;28;20032;-70
2024/01/18 09:15:45;;;;;;;3.13;2.55;;;;;;;0.45;64.28;98032.28;5107313;28;20405;-69
2024/01/18 09:18:10;;;;;;;0.98;0.98;;;;;;;0.72;66.27;98037.22;5105776;28;20024;-70
2024/01/18 09:20:37;;;;;;;0.60;0.60;;;;;;;1.01;67.48;98037.91;5107093;28;20028;-70
2024/01/18 09:23:02;;;;;;;0.50;0.50;;;;;;;1.20;65.04;98043.69;5107118;28;20016;-70
2024/01/18 09:25:28;;;;;;;5.20;0.70;;;;;;;1.60;65.41;98051.00;5107326;28;20028;-70
2024/01/18 09:27:54;;;;;;;0.60;0.60;;;;;;;2.29;68.70;98052.78;5106958;28;20024;-70
2024/01/18 09:30:19;;;;;;;0.50;0.50;;;;;;;2.83;68.94;98053.75;5106392;28;20038;-69
2024/01/18 09:32:45;;;;;;;0.50;0.50;;;;;;;3.41;69.43;98046.84;5105452;28;20468;-70
2024/01/18 09:35:10;;;;;;;0.60;0.60;;;;;;;3.85;69.73;98044.34;5107167;28;20031;-70
2024/01/18 09:37:36;;;;;;;5.88;0.88;;;;;;;4.11;67.18;98053.28;5106976;28;20028;-69
2024/01/18 09:40:01;;;;;;;0.50;0.50;;;;;;;4.06;67.81;98058.50;5107137;28;20081;-69
2024/01/18 09:42:32;;;;;;;0.77;0.45;;;;;;;3.72;68.28;98049.72;5106692;28;20040;-70
2024/01/18 09:45:00;;;;;;;;;;;;;;;3.25;65.81;98053.97;5106285;28;20109;-71
2024/01/18 09:47:25;;;;;;;1.42;0.80;;;;;;;2.92;67.52;98060.47;5106833;28;19908;-70
2024/01/18 09:49:53;;;;;;;0.90;0.90;;;;;;;2.73;68.27;98055.59;5106454;22;20079;-63
2024/01/18 09:52:18;;;;;;;0.60;0.60;;;;;;;2.76;67.49;98057.28;5108283;22;20101;-66
2024/01/18 09:54:43;;;;;;;0.85;0.85;;;;;;;2.77;67.50;98060.69;5008406;22;20154;-66
2024/01/18 09:57:12;;;;;;;0.77;0.73;;;;;;;2.83;69.41;98068.28;5034233;22;20049;-62
2024/01/18 09:59:42;;;;;;;1.75;1.65;;;;;;;3.08;69.87;98053.38;5083434;22;20044;-67
2024/01/18 10:02:08;;;;;;;0.70;0.70;;;;;;;3.38;66.93;98064.88;5095758;22;20059;-63
2024/01/18 10:04:33;;;;;;;0.60;0.60;;;;;;;3.90;68.64;98063.09;5083991;28;20028;-62
2024/01/18 10:06:59;;;;;;;1.00;0.90;;;;;;;4.60;68.22;98055.66;5084567;28;20495;-63
2024/01/18 10:09:24;;;;;;;1.30;1.20;;;;;;;5.14;65.60;98056.19;5086082;28;20029;-63
2024/01/18 10:11:50;;;;;;;0.50;0.50;;;;;;;5.65;65.99;98054.06;5085679;28;20464;-64
2024/01/18 10:14:15;;;;;;;0.50;0.50;;;;;;;6.12;64.67;98055.41;5085637;28;20091;-63
2024/01/18 10:16:41;;;;;;;6.95;0.93;;;;;;;6.46;63.99;98058.72;5084117;28;20040;-62
2024/01/18 10:19:14;;;;;;;0.73;0.73;;;;;;;6.57;59.22;98067.00;5085185;28;20020;-64
2024/01/18 10:21:40;;;;;;;0.60;0.60;;;;;;;6.46;58.70;98053.56;5083215;28;20020;-64
2024/01/18 10:24:11;;;;;;;1.25;0.90;;;;;;;6.43;57.21;98061.41;5085474;28;20072;-63
2024/01/18 10:26:36;;;;;;;0.82;0.70;;;;;;;6.23;57.14;98054.25;5085502;28;20055;-64
2024/01/18 10:29:02;;;;;;;1.67;0.95;;;;;;;6.12;57.85;98052.81;5085455;28;20020;-64
2024/01/18 10:31:28;;;;;;;0.60;0.60;;;;;;;5.97;58.54;98048.06;5085372;28;20025;-63
2024/01/18 10:33:55;;;;;;;1.17;1.08;;;;;;;5.78;58.84;98043.44;5085275;28;20163;-64
2024/01/18 10:36:21;;;;;;;0.63;0.63;;;;;;;5.33;58.95;98053.16;5085326;28;20020;-63
2024/01/18 10:38:47;;;;;;;0.90;0.77;;;;;;;4.47;58.64;98058.50;5085592;28;20031;-64
2024/01/18 10:41:19;;;;;;;1.38;0.90;;;;;;;3.75;59.87;98059.09;5084842;28;20366;-64
2024/01/18 10:43:44;;;;;;;0.70;0.70;;;;;;;3.32;58.86;98065.84;5085150;28;20027;-64
2024/01/18 10:46:10;;;;;;;0.70;0.70;;;;;;;3.19;58.23;98068.59;5083838;28;20028;-65
2024/01/18 10:48:36;;;;;;;0.70;0.70;;;;;;;3.24;60.84;98065.09;5085401;28;20021;-64
2024/01/18 10:51:02;;;;;;;2.35;0.88;;;;;;;2.92;60.64;98075.84;5085086;28;20027;-64
2024/01/18 10:53:36;;;;;;;2.83;2.03;;;;;;;2.66;61.27;98065.97;5083767;28;20289;-63
2024/01/18 10:56:02;;;;;;;1.15;0.70;;;;;;;2.41;60.79;98068.88;5084910;28;20021;-63
2024/01/18 10:58:29;;;;;;;0.80;0.80;;;;;;;2.25;62.25;98065.66;5085239;28;20039;-64
2024/01/18 11:00:55;;;;;;;3.30;1.35;;;;;;;2.21;63.39;98068.25;5084930;28;20044;-64
2024/01/18 11:03:20;;;;;;;1.70;1.60;;;;;;;2.26;63.74;98083.56;5083526;28;20039;-64
2024/01/18 11:05:48;;;;;;;2.35;0.77;;;;;;;2.17;62.56;98076.81;5082723;28;20020;-64
2024/01/18 11:08:14;;;;;;;0.50;0.50;;;;;;;2.25;65.25;98079.31;5084956;28;20099;-64
2024/01/18 11:10:40;;;;;;;0.52;0.52;;;;;;;2.44;65.63;98089.31;5085122;28;20346;-65
2024/01/18 11:13:07;;;;;;;0.60;0.60;;;;;;;2.66;64.69;98086.47;5083644;28;20036;-63
2024/01/18 11:15:34;;;;;;;0.50;0.50;;;;;;;2.89;62.78;98096.38;5084793;28;20029;-63
2024/01/18 11:18:09;;;;;;;1.48;1.23;;;;;;;3.31;63.30;98097.47;5083283;28;20086;-64
2024/01/18 11:20:54;;;;;;;0.50;0.50;;;;;;;3.77;62.02;98103.53;5085166;28;20052;-64
2024/01/18 11:23:22;;;;;;;1.08;0.98;;;;;;;4.34;59.22;98100.78;5084665;28;20021;-64
2024/01/18 11:25:48;;;;;;;0.50;0.50;;;;;;;4.87;58.83;98097.09;5084759;28;20033;-63
2024/01/18 11:28:24;;;;;;;0.50;0.50;;;;;;;5.43;56.69;98111.22;5085087;28;20031;-65